Time;durP1;ratioP1;P1;durP2;ratioP2;P2;SDS_P1;SDS_P2;PMS_P1;PMS_P2;Temp;Humidity;BMP_temperature;BMP_pressure;BME280_temperature;BME280_humidity;BME280_pressure;Samples;Min_cycle;Max_cycle;Signal;HPM_P1;HPM_P2
2020/12/11 00:01:27;;;;;;;20.02;8.45;;;;;;;-0.99;66.00;101869.48;1694182;83;21164;-79
2020/12/11 00:03:56;;;;;;;22.25;11.10;;;;;;;-1.01;66.12;101876.33;1685676;82;21058;-77
2020/12/11 00:06:25;;;;;;;20.25;8.95;;;;;;;-1.03;66.14;101875.45;1651653;83;21079;-78
2020/12/11 00:08:53;;;;;;;19.40;9.65;;;;;;;-1.07;66.23;101876.73;1664824;83;21174;-77
2020/12/11 00:11:29;;;;;;;17.73;10.05;;;;;;;-1.09;66.21;101877.14;1665140;82;21050;-78
2020/12/11 00:13:58;;;;;;;18.85;10.15;;;;;;;-1.12;66.25;101876.23;1669081;83;21098;-77
2020/12/11 00:16:26;;;;;;;23.85;12.35;;;;;;;-1.12;66.26;101879.66;1665456;83;21614;-79
2020/12/11 00:18:54;;;;;;;22.98;10.40;;;;;;;-1.14;66.33;101876.22;1667109;82;21058;-79
2020/12/11 00:21:22;;;;;;;21.15;9.63;;;;;;;-1.16;66.36;101871.91;1657858;83;21049;-78
2020/12/11 00:23:51;;;;;;;17.02;9.30;;;;;;;-1.17;66.34;101871.05;1640828;84;21332;-76
2020/12/11 00:26:19;;;;;;;20.62;9.98;;;;;;;-1.19;66.37;101869.32;1668355;83;21080;-78
2020/12/11 00:28:47;;;;;;;19.87;8.60;;;;;;;-1.23;66.37;101863.27;1689188;83;20967;-77
2020/12/11 00:31:17;;;;;;;18.82;10.65;;;;;;;-1.27;66.45;101861.11;1690443;82;21096;-77
2020/12/11 00:33:45;;;;;;;27.67;11.88;;;;;;;-1.29;66.52;101863.20;1644373;83;21184;-79
2020/12/11 00:36:13;;;;;;;24.95;11.12;;;;;;;-1.28;66.59;101868.81;1692843;83;21101;-79
2020/12/11 00:38:41;;;;;;;18.00;8.95;;;;;;;-1.30;66.59;101861.06;1697267;80;20982;-75
2020/12/11 00:41:09;;;;;;;17.67;9.00;;;;;;;-1.34;66.59;101849.02;1726670;81;21109;-75
2020/12/11 00:43:37;;;;;;;14.50;7.83;;;;;;;-1.41;66.70;101851.10;1715685;81;21547;-74
2020/12/11 00:46:07;;;;;;;15.40;7.72;;;;;;;-1.43;66.89;101855.80;1759929;79;20999;-76
2020/12/11 00:48:37;;;;;;;12.95;6.95;;;;;;;-1.48;66.92;101846.75;1714002;81;21027;-75
2020/12/11 00:51:05;;;;;;;16.23;6.97;;;;;;;-1.54;67.13;101846.26;1682396;82;21517;-74
2020/12/11 00:53:34;;;;;;;16.70;6.47;;;;;;;-1.55;67.10;101837.27;1753671;79;21600;-74
2020/12/11 00:56:01;;;;;;;15.48;8.00;;;;;;;-1.56;67.21;101832.95;1765677;79;21032;-76
2020/12/11 00:58:29;;;;;;;21.05;8.35;;;;;;;-1.56;67.17;101840.66;1768340;79;21875;-75
2020/12/11 01:00:57;;;;;;;25.05;9.53;;;;;;;-1.60;67.33;101846.22;1758000;79;21064;-79
2020/12/11 01:03:25;;;;;;;18.50;9.15;;;;;;;-1.62;67.33;101830.31;1762575;80;20953;-74
2020/12/11 01:05:53;;;;;;;19.05;9.45;;;;;;;-1.62;67.38;101840.20;1771857;79;21052;-75
2020/12/11 01:08:22;;;;;;;16.17;9.78;;;;;;;-1.63;67.40;101834.60;1732558;78;21079;-76
2020/12/11 01:10:50;;;;;;;14.63;7.40;;;;;;;-1.65;67.37;101826.00;1767553;79;21228;-75
2020/12/11 01:13:18;;;;;;;17.73;8.35;;;;;;;-1.67;67.46;101837.58;1757787;78;20988;-75
2020/12/11 01:15:46;;;;;;;17.02;7.20;;;;;;;-1.70;67.47;101828.97;1766910;79;21051;-77
2020/12/11 01:18:14;;;;;;;13.62;6.62;;;;;;;-1.71;67.50;101825.97;1757529;80;20921;-75
2020/12/11 01:20:42;;;;;;;20.68;8.33;;;;;;;-1.78;67.56;101818.62;1719533;81;21543;-75
2020/12/11 01:23:10;;;;;;;18.25;8.85;;;;;;;-1.79;67.65;101814.30;1723332;81;21184;-75
2020/12/11 01:25:38;;;;;;;32.50;11.60;;;;;;;-1.81;67.71;101815.99;1726935;82;20983;-74
2020/12/11 01:28:06;;;;;;;24.45;11.45;;;;;;;-1.82;67.83;101818.14;1802388;77;21083;-75
2020/12/11 01:30:34;;;;;;;26.07;10.45;;;;;;;-1.82;67.80;101818.54;1750057;80;21123;-74
2020/12/11 01:33:02;;;;;;;29.70;12.70;;;;;;;-1.86;67.86;101815.52;1761838;79;20981;-75
2020/12/11 01:35:30;;;;;;;27.48;11.08;;;;;;;-1.86;67.81;101809.95;1762938;80;21613;-76
2020/12/11 01:37:58;;;;;;;29.48;11.73;;;;;;;-1.88;67.88;101812.50;1756996;79;21055;-75
2020/12/11 01:40:25;;;;;;;25.97;11.80;;;;;;;-1.85;67.75;101815.95;1760475;79;20969;-73
2020/12/11 01:42:53;;;;;;;22.10;10.40;;;;;;;-1.86;67.84;101820.66;1746860;79;21121;-80
2020/12/11 01:45:21;;;;;;;28.10;11.33;;;;;;;-1.84;67.78;101815.97;1736337;79;21035;-77
2020/12/11 01:47:49;;;;;;;21.65;10.40;;;;;;;-1.86;67.73;101817.66;1717974;80;22033;-77
2020/12/11 01:50:21;;;;;;;28.02;11.35;;;;;;;-1.91;67.95;101811.19;1715050;81;21114;-78
2020/12/11 01:52:50;;;;;;;22.30;10.95;;;;;;;-1.96;67.91;101802.55;1732224;80;21098;-79
2020/12/11 01:55:19;;;;;;;25.65;10.38;;;;;;;-1.98;68.01;101807.23;1738899;80;21137;-79
2020/12/11 01:58:00;;;;;;;34.90;16.50;;;;;;;-2.00;68.13;101810.21;1743886;78;21596;-79
2020/12/11 02:00:28;;;;;;;31.70;14.50;;;;;;;-2.05;68.19;101803.73;1771396;78;21179;-82
2020/12/11 02:03:05;;;;;;;38.55;15.85;;;;;;;-2.07;68.24;101810.56;1759569;79;20976;-81
2020/12/11 02:05:33;;;;;;;32.25;13.65;;;;;;;-2.09;68.24;101801.97;1773031;79;21106;-80
2020/12/11 02:08:01;;;;;;;24.45;11.53;;;;;;;-2.10;68.25;101802.83;1776754;78;21186;-79
2020/12/11 02:12:07;;;;;;;24.18;10.80;;;;;;;-2.11;68.29;101798.12;1848867;76;22548;-80
2020/12/11 02:14:35;;;;;;;31.42;12.73;;;;;;;-2.18;68.41;101807.01;1786539;79;20930;-79
2020/12/11 02:17:06;;;;;;;29.18;13.83;;;;;;;-2.21;68.46;101800.56;1786487;79;21181;-79
2020/12/11 02:19:34;;;;;;;29.70;11.28;;;;;;;-2.22;68.52;101802.67;1786712;79;20974;-81
2020/12/11 02:22:05;;;;;;;29.12;12.85;;;;;;;-2.23;68.49;101797.11;1818408;78;20922;-80
2020/12/11 02:24:33;;;;;;;27.85;13.40;;;;;;;-2.25;68.52;101789.37;1785209;79;21006;-80
2020/12/11 02:27:02;;;;;;;35.08;13.32;;;;;;;-2.25;68.47;101787.23;1785191;79;20974;-78
2020/12/11 02:29:31;;;;;;;31.52;12.78;;;;;;;-2.26;68.47;101786.37;1785369;79;21181;-79
2020/12/11 02:31:59;;;;;;;37.08;13.13;;;;;;;-2.28;68.53;101785.50;1788786;79;21021;-79
2020/12/11 02:34:26;;;;;;;31.35;13.53;;;;;;;-2.32;68.61;101781.16;1788629;79;20946;-78
2020/12/11 02:37:01;;;;;;;28.30;12.93;;;;;;;-2.35;68.66;101782.42;1789823;79;20926;-78
2020/12/11 02:39:43;;;;;;;27.60;12.70;;;;;;;-2.34;68.74;101781.56;1892267;76;22693;-79
2020/12/11 02:42:11;;;;;;;26.12;12.73;;;;;;;-2.41;68.82;101787.05;1829587;77;21049;-81
2020/12/11 02:44:38;;;;;;;32.42;13.50;;;;;;;-2.39;68.81;101780.66;1791325;78;21002;-80
2020/12/11 02:47:06;;;;;;;32.15;14.33;;;;;;;-2.42;68.83;101775.06;1791386;78;20967;-80
2020/12/11 02:49:35;;;;;;;32.03;13.10;;;;;;;-2.42;68.82;101776.75;1791367;78;21020;-80
2020/12/11 02:52:05;;;;;;;32.20;12.25;;;;;;;-2.43;68.89;101778.89;1791468;78;21003;-80
2020/12/11 02:54:34;;;;;;;27.48;12.33;;;;;;;-2.50;69.17;101785.66;1791401;78;20976;-81
2020/12/11 02:57:01;;;;;;;34.20;12.58;;;;;;;-2.55;69.21;101771.48;1791381;78;21214;-80
2020/12/11 02:59:29;;;;;;;37.10;14.35;;;;;;;-2.57;69.25;101773.16;1786129;80;21604;-81
2020/12/11 03:01:58;;;;;;;30.60;12.50;;;;;;;-2.59;69.32;101767.14;1791393;77;20934;-81
2020/12/11 03:04:26;;;;;;;34.70;14.80;;;;;;;-2.59;69.32;101760.72;1790772;78;20951;-81
2020/12/11 03:06:54;;;;;;;32.05;15.78;;;;;;;-2.61;69.44;101766.26;1791548;78;20904;-79
2020/12/11 03:09:22;;;;;;;35.95;16.45;;;;;;;-2.59;69.52;101768.42;1791370;78;21109;-80
2020/12/11 03:11:50;;;;;;;31.02;14.33;;;;;;;-2.58;69.54;101766.71;1791255;78;21031;-82
2020/12/11 03:14:18;;;;;;;29.72;13.65;;;;;;;-2.56;69.54;101774.02;1791150;78;21023;-80
2020/12/11 03:16:46;;;;;;;24.90;11.95;;;;;;;-2.53;69.49;101776.64;1791361;78;21505;-79
2020/12/11 03:19:14;;;;;;;24.60;12.60;;;;;;;-2.52;69.35;101774.07;1791483;78;20940;-79
2020/12/11 03:21:42;;;;;;;28.10;12.45;;;;;;;-2.54;69.41;101768.48;1791509;78;21621;-80
2020/12/11 03:24:10;;;;;;;24.35;12.43;;;;;;;-2.53;69.43;101755.67;1791212;78;21007;-80
2020/12/11 03:26:38;;;;;;;19.87;9.90;;;;;;;-2.57;69.44;101755.62;1791366;78;21023;-81
2020/12/11 03:29:06;;;;;;;18.25;9.50;;;;;;;-2.58;69.47;101756.44;1791417;78;20967;-81
2020/12/11 03:31:35;;;;;;;22.77;10.60;;;;;;;-2.63;69.61;101746.55;1791909;78;21047;-81
2020/12/11 03:34:02;;;;;;;27.42;12.93;;;;;;;-2.67;69.72;101752.05;1791567;78;21160;-78
2020/12/11 03:36:30;;;;;;;23.27;11.97;;;;;;;-2.69;69.77;101747.34;1791156;78;20999;-80
2020/12/11 03:38:58;;;;;;;30.57;14.55;;;;;;;-2.71;69.90;101741.33;1791058;78;21177;-79
2020/12/11 03:41:26;;;;;;;22.52;11.03;;;;;;;-2.66;69.79;101743.95;1791458;78;21249;-81
2020/12/11 03:43:54;;;;;;;29.92;13.80;;;;;;;-2.65;69.60;101741.81;1791300;78;20936;-78
2020/12/11 03:46:21;;;;;;;28.80;12.85;;;;;;;-2.69;69.47;101749.91;1791389;78;21087;-80
2020/12/11 03:48:51;;;;;;;30.15;13.30;;;;;;;-2.72;69.54;101746.00;1792244;77;21033;-80
2020/12/11 03:51:20;;;;;;;24.43;12.40;;;;;;;-2.75;69.55;101749.40;1796198;78;20988;-80
2020/12/11 03:53:48;;;;;;;21.45;13.18;;;;;;;-2.77;69.47;101750.23;1796298;78;21048;-80
2020/12/11 03:56:17;;;;;;;25.27;13.20;;;;;;;-2.79;69.48;101751.91;1796095;78;20934;-80
2020/12/11 03:58:46;;;;;;;26.35;12.73;;;;;;;-2.84;69.47;101757.41;1796627;78;20985;-78
2020/12/11 04:01:14;;;;;;;22.65;11.40;;;;;;;-2.90;69.47;101760.74;1796443;78;20998;-80
2020/12/11 04:03:43;;;;;;;23.95;12.53;;;;;;;-3.00;69.66;101753.34;1796741;78;21388;-81
2020/12/11 04:06:14;;;;;;;23.95;13.75;;;;;;;-3.08;69.87;101752.37;1796030;77;21013;-80
2020/12/11 04:08:43;;;;;;;28.23;13.32;;;;;;;-3.14;70.02;101750.98;1796073;78;20954;-79
2020/12/11 04:11:15;;;;;;;18.35;10.23;;;;;;;-3.16;70.06;101751.38;1796070;78;21716;-80
2020/12/11 04:13:43;;;;;;;23.42;12.30;;;;;;;-3.19;70.12;101750.06;1795661;77;21502;-81
2020/12/11 04:16:11;;;;;;;16.30;10.53;;;;;;;-3.26;70.20;101741.84;1796222;78;20997;-80
2020/12/11 04:18:42;;;;;;;22.40;11.22;;;;;;;-3.34;70.49;101738.72;1795770;77;21040;-78
2020/12/11 04:21:15;;;;;;;18.60;10.45;;;;;;;-3.40;70.64;101745.06;1798541;78;21045;-77
2020/12/11 04:23:43;;;;;;;20.60;12.28;;;;;;;-3.48;70.74;101744.07;1799966;78;21862;-78
2020/12/11 04:26:11;;;;;;;20.57;11.18;;;;;;;-3.58;70.91;101741.79;1799643;78;21046;-79
2020/12/11 04:28:40;;;;;;;22.27;13.25;;;;;;;-3.59;71.06;101760.98;1799302;78;21028;-80
2020/12/11 04:31:09;;;;;;;26.70;10.78;;;;;;;-3.63;71.12;101757.48;1796711;78;21041;-79
2020/12/11 04:33:38;;;;;;;19.00;11.12;;;;;;;-3.64;71.19;101762.19;1796089;78;20942;-80
2020/12/11 04:36:06;;;;;;;25.68;11.75;;;;;;;-3.70;71.33;101754.81;1795929;78;20978;-80
2020/12/11 04:38:34;;;;;;;25.68;13.78;;;;;;;-3.73;71.52;101758.59;1795776;78;20981;-80
2020/12/11 04:41:04;;;;;;;24.57;13.03;;;;;;;-3.79;71.62;101756.80;1796137;77;21423;-81
2020/12/11 04:43:32;;;;;;;22.22;11.48;;;;;;;-3.84;71.68;101754.16;1795957;78;21434;-81
2020/12/11 04:46:01;;;;;;;24.25;12.40;;;;;;;-3.88;71.78;101758.78;1795784;77;20998;-82
2020/12/11 04:48:32;;;;;;;20.50;12.10;;;;;;;-3.91;71.88;101761.30;1796246;78;21163;-82
2020/12/11 04:51:02;;;;;;;26.57;12.75;;;;;;;-3.91;72.08;101754.00;1744337;78;21008;-83
2020/12/11 04:53:35;;;;;;;32.13;13.85;;;;;;;-3.86;71.91;101750.70;1796109;78;21009;-81
2020/12/11 04:56:05;;;;;;;33.70;15.68;;;;;;;-3.87;71.91;101747.67;1795723;78;20946;-82
2020/12/11 04:58:33;;;;;;;29.02;15.08;;;;;;;-3.89;71.89;101749.77;1795644;78;20922;-81
2020/12/11 05:01:04;;;;;;;30.80;15.60;;;;;;;-3.87;71.84;101748.11;1795536;77;21139;-82
2020/12/11 05:03:35;;;;;;;29.87;14.73;;;;;;;-3.90;71.90;101749.34;1795831;78;20954;-82
2020/12/11 05:06:03;;;;;;;35.38;14.40;;;;;;;-3.89;71.91;101749.38;1795840;78;21013;-82
2020/12/11 05:08:31;;;;;;;27.55;16.17;;;;;;;-3.88;71.91;101744.69;1795826;78;20958;-82
2020/12/11 05:10:59;;;;;;;30.17;16.97;;;;;;;-3.84;71.96;101746.47;1795952;78;20954;-84
2020/12/11 05:13:27;;;;;;;30.97;16.95;;;;;;;-3.82;71.77;101742.23;1795401;78;22125;-82
2020/12/11 05:16:13;;;;;;;30.30;15.32;;;;;;;-3.82;71.74;101740.95;1823340;77;21427;-80
2020/12/11 05:18:41;;;;;;;31.50;16.93;;;;;;;-3.79;71.56;101756.80;1795453;77;21044;-83
2020/12/11 05:21:18;;;;;;;34.60;16.35;;;;;;;-3.81;71.52;101755.48;1795996;78;20982;-80
2020/12/11 05:23:56;;;;;;;26.68;15.13;;;;;;;-3.80;71.37;101756.34;1795962;78;21364;-79
2020/12/11 05:26:26;;;;;;;28.12;12.47;;;;;;;-3.86;71.53;101763.94;1793243;78;20946;-83
2020/12/11 05:28:55;;;;;;;22.07;12.33;;;;;;;-3.87;71.55;101761.77;1795842;78;21395;-77
2020/12/11 05:31:23;;;;;;;25.45;13.43;;;;;;;-3.94;71.70;101748.84;1795708;77;20946;-79
2020/12/11 05:34:13;;;;;;;31.25;15.08;;;;;;;-3.99;71.82;101767.97;1795831;78;20950;-78
2020/12/11 05:39:33;;;;;;;27.80;16.87;;;;;;;-4.00;72.02;101746.63;1797790;79;27854;-79
2020/12/11 05:42:05;;;;;;;22.22;11.53;;;;;;;-4.01;71.99;101750.00;1755834;80;21140;-81
2020/12/11 05:44:34;;;;;;;32.80;15.05;;;;;;;-4.00;71.88;101744.06;1731148;80;21157;-79
2020/12/11 05:47:23;;;;;;;31.10;14.35;;;;;;;-4.04;71.98;101756.79;1755418;80;20922;-76
2020/12/11 05:49:51;;;;;;;23.42;13.48;;;;;;;-4.07;72.09;101750.31;1755409;80;20915;-76
2020/12/11 05:52:24;;;;;;;24.12;11.30;;;;;;;-4.10;72.27;101744.72;1755720;79;20946;-76
2020/12/11 05:54:54;;;;;;;22.85;12.10;;;;;;;-4.08;72.25;101746.89;1770816;77;21181;-75
2020/12/11 05:57:23;;;;;;;22.95;12.23;;;;;;;-4.08;72.27;101752.44;1672097;85;21632;-78
2020/12/11 05:59:59;;;;;;;35.13;15.13;;;;;;;-4.08;72.25;101744.75;1671888;83;21026;-82
2020/12/11 06:02:30;;;;;;;19.45;11.45;;;;;;;-4.09;72.29;101736.61;1744170;80;20960;-84
2020/12/11 06:04:58;;;;;;;27.37;13.85;;;;;;;-4.11;72.38;101745.96;1724087;82;20988;-81
2020/12/11 06:07:28;;;;;;;22.58;13.38;;;;;;;-4.10;72.41;101740.88;1742635;82;20945;-84
2020/12/11 06:10:00;;;;;;;25.85;15.25;;;;;;;-4.09;72.40;101746.85;1723435;82;21473;-84
2020/12/11 06:12:28;;;;;;;22.52;12.05;;;;;;;-4.06;72.31;101749.06;1742262;82;20965;-82
2020/12/11 06:15:12;;;;;;;29.60;14.75;;;;;;;-4.06;72.36;101750.77;1697997;82;20936;-86
2020/12/11 06:18:01;;;;;;;28.95;15.03;;;;;;;-4.05;72.26;101743.52;1707709;82;20968;-83
2020/12/11 06:20:30;;;;;;;34.58;19.15;;;;;;;-4.05;72.32;101738.39;1723026;82;20928;-85
2020/12/11 06:23:26;;;;;;;32.10;14.68;;;;;;;-4.03;72.34;101735.45;1722844;82;21635;-83
2020/12/11 06:25:59;;;;;;;26.48;14.53;;;;;;;-4.00;72.33;101738.94;1722533;82;21079;-84
2020/12/11 06:28:42;;;;;;;34.92;15.68;;;;;;;-3.99;72.33;101731.68;1723096;82;21398;-85
2020/12/11 06:31:24;;;;;;;30.80;16.20;;;;;;;-4.00;72.38;101727.41;1722901;82;20960;-84
2020/12/11 06:33:56;;;;;;;40.20;16.23;;;;;;;-3.93;72.37;101736.48;1722910;82;21106;-86
2020/12/11 06:36:24;;;;;;;43.58;19.98;;;;;;;-3.83;72.17;101733.23;1723098;82;21575;-84
2020/12/11 06:38:56;;;;;;;36.17;17.25;;;;;;;-3.76;72.00;101736.34;1722673;82;21565;-80
2020/12/11 06:41:34;;;;;;;34.90;17.80;;;;;;;-3.70;71.78;101727.48;1722921;82;21442;-83
2020/12/11 06:44:17;;;;;;;32.78;17.20;;;;;;;-3.68;71.66;101722.38;1722620;82;21051;-85
2020/12/11 06:47:06;;;;;;;32.60;16.55;;;;;;;-3.66;71.67;101721.99;1722905;82;20980;-83
2020/12/11 06:49:39;;;;;;;33.70;16.52;;;;;;;-3.61;71.54;101720.36;1741622;81;21035;-82
2020/12/11 06:52:11;;;;;;;31.77;16.77;;;;;;;-3.58;71.58;101717.44;1722100;82;20992;-84
2020/12/11 06:54:45;;;;;;;30.90;14.38;;;;;;;-3.51;71.40;101727.37;1722509;82;20980;-84
2020/12/11 06:57:13;;;;;;;25.65;15.20;;;;;;;-3.46;71.28;101710.77;1722709;82;21012;-81
2020/12/11 06:59:56;;;;;;;23.60;13.10;;;;;;;-3.41;71.12;101712.97;1687290;84;20956;-87
2020/12/11 07:02:29;;;;;;;30.75;15.93;;;;;;;-3.32;70.80;101712.25;1679083;84;21743;-87
2020/12/11 07:04:57;;;;;;;37.55;14.55;;;;;;;-3.28;70.73;101701.20;1675991;85;21409;-88
2020/12/11 07:07:30;;;;;;;21.23;11.97;;;;;;;-3.23;70.57;101695.28;1679340;84;20988;-87
2020/12/11 07:09:58;;;;;;;27.30;14.80;;;;;;;-3.13;70.33;101691.16;1676247;85;20964;-91
2020/12/11 07:12:26;;;;;;;25.52;14.35;;;;;;;-3.09;70.26;101690.77;1678773;84;20967;-86
2020/12/11 07:14:56;;;;;;;27.50;13.28;;;;;;;-3.04;69.96;101689.14;1676140;85;21051;-94
2020/12/11 07:17:28;;;;;;;42.62;16.93;;;;;;;-2.99;69.84;101687.48;1677080;85;20976;-92
2020/12/11 07:20:01;;;;;;;26.27;13.90;;;;;;;-2.96;69.82;101675.57;1678831;84;20999;-90
2020/12/11 07:22:30;;;;;;;30.80;15.63;;;;;;;-2.83;69.64;101678.27;1680493;84;21480;-91
2020/12/11 07:24:59;;;;;;;29.90;15.95;;;;;;;-2.74;69.37;101679.23;1677044;85;21090;-89
2020/12/11 07:27:28;;;;;;;29.98;14.95;;;;;;;-2.65;69.15;101680.19;1656886;84;21013;-89
2020/12/11 07:29:56;;;;;;;35.30;16.12;;;;;;;-2.60;68.96;101684.55;1676459;85;21434;-88
2020/12/11 07:32:24;;;;;;;31.97;15.50;;;;;;;-2.58;68.89;101681.98;1679152;84;21046;-88
2020/12/11 07:34:53;;;;;;;31.33;16.17;;;;;;;-2.48;68.73;101682.96;1675906;85;21035;-85
2020/12/11 07:37:22;;;;;;;26.37;14.63;;;;;;;-2.38;68.52;101680.91;1678954;84;21027;-89
2020/12/11 07:39:53;;;;;;;31.87;16.67;;;;;;;-2.34;68.34;101679.67;1675910;85;21833;-89
2020/12/11 07:42:24;;;;;;;29.92;14.47;;;;;;;-2.28;68.37;101662.19;1681071;84;21023;-90
2020/12/11 07:44:52;;;;;;;31.52;15.35;;;;;;;-2.20;68.10;101661.84;1676149;85;21043;-85
2020/12/11 07:47:20;;;;;;;27.95;14.75;;;;;;;-2.18;67.91;101656.30;1679284;84;21051;-87
2020/12/11 07:49:49;;;;;;;25.12;14.25;;;;;;;-2.14;67.86;101654.60;1676111;85;21047;-89
2020/12/11 07:52:22;;;;;;;29.32;14.30;;;;;;;-2.16;67.95;101654.58;1678984;84;21493;-93
2020/12/11 07:54:50;;;;;;;37.60;16.07;;;;;;;-2.14;68.05;101652.03;1653570;85;21512;-89
2020/12/11 07:57:22;;;;;;;33.70;17.95;;;;;;;-2.12;68.10;101647.34;1656405;84;21001;-91
2020/12/11 08:00:08;;;;;;;29.55;15.88;;;;;;;-2.09;68.11;101637.50;1678031;84;21406;-85
2020/12/11 08:02:36;;;;;;;;;;;;;;;-2.02;68.12;101636.73;1673045;79;21059;-86
2020/12/11 08:05:07;;;;;;;24.12;12.88;;;;;;;-1.96;68.01;101641.90;1645043;86;21672;-86
2020/12/11 08:07:35;;;;;;;28.65;16.07;;;;;;;-1.90;67.96;101625.68;1685124;84;21031;-76
2020/12/11 08:10:11;;;;;;;30.68;16.23;;;;;;;-1.87;68.00;101623.12;1684602;84;21014;-79
2020/12/11 08:12:40;;;;;;;29.37;15.28;;;;;;;-1.83;68.08;101626.58;1684631;84;20967;-77
2020/12/11 08:15:09;;;;;;;30.05;15.15;;;;;;;-1.76;68.50;101627.06;1684945;84;20983;-77
2020/12/11 08:17:39;;;;;;;35.30;15.63;;;;;;;-1.69;68.28;101634.84;1684832;83;21174;-74
2020/12/11 08:20:08;;;;;;;32.95;15.85;;;;;;;-1.60;68.02;101641.77;1684779;84;20995;-77
2020/12/11 08:22:39;;;;;;;23.62;13.70;;;;;;;-1.55;67.96;101630.22;1684853;82;20991;-76
2020/12/11 08:25:20;;;;;;;21.80;12.10;;;;;;;-1.54;68.03;101619.91;1684525;84;20944;-76
2020/12/11 08:27:50;;;;;;;27.22;13.83;;;;;;;-1.48;68.01;101625.53;1684717;84;20939;-76
2020/12/11 08:30:19;;;;;;;27.00;13.83;;;;;;;-1.41;67.93;101618.28;1684714;84;21263;-76
2020/12/11 08:32:48;;;;;;;25.82;13.20;;;;;;;-1.33;67.87;101603.75;1684484;84;20975;-76
2020/12/11 08:35:21;;;;;;;25.55;12.75;;;;;;;-1.25;67.70;101602.05;1684310;84;21039;-76
2020/12/11 08:37:56;;;;;;;26.15;15.25;;;;;;;-1.21;67.63;101587.94;1681948;84;20978;-77
2020/12/11 08:40:27;;;;;;;32.47;13.67;;;;;;;-1.16;67.65;101601.67;1684547;84;21022;-76
2020/12/11 08:48:47;;;;;;;24.43;12.90;;;;;;;-0.98;67.40;101562.27;1684965;84;20955;-76
2020/12/11 08:51:09;;;;;;;28.85;15.93;;;;;;;-0.93;67.38;101563.16;1683704;84;20931;-77
2020/12/11 08:53:53;;;;;;;26.37;14.07;;;;;;;-0.86;67.28;101550.72;1685519;84;20951;-80
2020/12/11 08:56:25;;;;;;;31.37;13.18;;;;;;;-0.77;67.18;101557.61;1681187;84;21612;-80
2020/12/11 08:58:53;;;;;;;24.05;13.22;;;;;;;-0.72;67.01;101541.73;1684972;84;21098;-77
2020/12/11 09:01:21;;;;;;;25.08;13.68;;;;;;;-0.66;66.94;101543.03;1681750;84;21406;-79
2020/12/11 09:03:50;;;;;;;33.75;14.33;;;;;;;-0.59;66.84;101542.17;1672791;79;20976;-77
2020/12/11 09:06:18;;;;;;;27.42;13.65;;;;;;;-0.51;66.78;101533.14;1643129;86;20994;-79
2020/12/11 09:08:46;;;;;;;23.95;12.78;;;;;;;-0.43;66.56;101540.02;1669093;84;22962;-86
2020/12/11 09:11:14;;;;;;;27.82;12.47;;;;;;;-0.34;66.42;101530.59;1671623;84;21015;-75
2020/12/11 09:13:43;;;;;;;29.85;15.93;;;;;;;-0.25;66.32;101534.00;1671855;84;21062;-79
2020/12/11 09:16:12;;;;;;;37.88;16.55;;;;;;;-0.18;66.15;101528.41;1651185;85;21468;-80
2020/12/11 09:18:41;;;;;;;25.15;15.80;;;;;;;-0.09;65.97;101524.56;1623169;86;21090;-77
2020/12/11 09:21:10;;;;;;;28.47;13.50;;;;;;;-0.03;65.68;101523.23;1650845;85;21014;-78
2020/12/11 09:23:40;;;;;;;32.17;13.25;;;;;;;0.08;65.61;101509.48;1667973;84;21702;-80
2020/12/11 09:26:08;;;;;;;24.98;14.70;;;;;;;0.16;65.40;101512.47;1652292;82;20959;-77
2020/12/11 09:28:37;;;;;;;26.25;12.05;;;;;;;0.25;65.34;101510.30;1653957;84;21063;-80
2020/12/11 09:31:05;;;;;;;22.67;12.82;;;;;;;0.33;65.11;101505.09;1671665;81;20987;-80
2020/12/11 09:33:38;;;;;;;28.75;13.35;;;;;;;0.41;64.86;101508.52;1653357;85;21252;-79
2020/12/11 09:36:03;;;;;;;24.15;13.22;;;;;;;0.49;64.60;101500.33;1629985;85;21145;-79
2020/12/11 09:38:33;;;;;;;18.57;9.95;;;;;;;0.57;64.33;101506.30;1669271;84;21117;-81
2020/12/11 09:41:04;;;;;;;24.77;12.55;;;;;;;0.67;63.76;101499.80;1672081;84;21041;-83
2020/12/11 09:46:18;;;;;;;23.70;11.20;;;;;;;0.83;62.90;101494.99;1672312;84;21965;-82
2020/12/11 09:48:45;;;;;;;19.50;10.00;;;;;;;0.91;62.71;101484.20;1650678;85;21009;-78
2020/12/11 09:51:41;;;;;;;19.77;10.63;;;;;;;0.98;62.42;101489.73;1651707;85;21520;-80
2020/12/11 09:54:07;;;;;;;24.72;14.33;;;;;;;1.04;62.27;101478.49;1647544;85;20998;-81
2020/12/11 09:56:27;;;;;;;31.73;13.55;;;;;;;1.11;61.91;101474.14;1667153;84;21630;-82
2020/12/11 09:59:02;;;;;;;30.62;15.00;;;;;;;1.16;61.75;101476.28;1644530;86;21012;-76
2020/12/11 10:04:17;;;;;;;36.98;13.60;;;;;;;1.25;61.35;101465.88;1621044;84;21114;-82
2020/12/11 10:06:46;;;;;;;37.58;16.75;;;;;;;1.32;60.94;101461.52;1604909;88;20959;-82
2020/12/11 10:09:15;;;;;;;30.02;14.23;;;;;;;1.35;61.07;101463.62;1604569;88;20991;-83
2020/12/11 10:11:43;;;;;;;38.53;16.00;;;;;;;1.40;60.75;101455.41;1603919;88;21576;-83
2020/12/11 10:16:41;;;;;;;22.62;11.28;;;;;;;1.51;60.47;101447.98;1604794;88;21492;-83
2020/12/11 10:19:11;;;;;;;26.65;12.18;;;;;;;1.55;60.34;101456.14;1604116;88;21118;-83
2020/12/11 10:21:40;;;;;;;20.00;10.05;;;;;;;1.60;60.03;101452.65;1604491;88;20999;-86
2020/12/11 10:24:08;;;;;;;24.65;10.93;;;;;;;1.65;59.89;101453.90;1604300;88;21443;-85
2020/12/11 10:26:39;;;;;;;20.90;11.08;;;;;;;1.66;59.67;101440.94;1603251;88;20987;-81
2020/12/11 10:29:09;;;;;;;27.20;11.78;;;;;;;1.70;59.62;101427.55;1603986;88;20968;-85
2020/12/11 10:31:41;;;;;;;24.25;10.08;;;;;;;1.74;59.67;101432.27;1604318;88;20987;-85
2020/12/11 10:34:14;;;;;;;20.02;10.93;;;;;;;1.79;59.56;101425.30;1604448;88;21114;-85
2020/12/11 10:36:43;;;;;;;18.57;7.95;;;;;;;1.81;59.40;101432.17;1604512;88;21948;-83
2020/12/11 10:39:11;;;;;;;21.17;8.43;;;;;;;1.83;59.39;101433.02;1604213;88;21105;-84
2020/12/11 10:41:43;;;;;;;20.37;9.85;;;;;;;1.89;59.40;101433.81;1628499;88;21062;-81
2020/12/11 10:44:11;;;;;;;15.00;8.98;;;;;;;1.92;59.22;101415.69;1604031;88;21124;-86
2020/12/11 10:46:40;;;;;;;18.70;10.05;;;;;;;1.97;59.11;101430.27;1604086;88;21078;-82
2020/12/11 10:49:08;;;;;;;13.78;8.63;;;;;;;2.00;59.08;101418.61;1604214;88;21024;-84
2020/12/11 10:51:38;;;;;;;22.13;11.40;;;;;;;2.04;58.97;101431.05;1604144;88;21003;-82
2020/12/11 10:54:06;;;;;;;26.82;11.95;;;;;;;2.05;58.91;101419.84;1604502;88;21016;-83
2020/12/11 10:56:36;;;;;;;25.95;13.15;;;;;;;2.09;59.03;101422.83;1603866;88;20967;-80
2020/12/11 10:59:04;;;;;;;26.80;12.25;;;;;;;2.13;59.11;101423.17;1603936;88;20999;-81
2020/12/11 11:01:31;;;;;;;26.68;11.78;;;;;;;2.18;58.91;101431.77;1604238;88;22008;-83
2020/12/11 11:04:01;;;;;;;24.05;11.00;;;;;;;2.22;58.83;101423.09;1603993;88;21236;-84
2020/12/11 11:06:35;;;;;;;22.15;10.58;;;;;;;2.24;58.51;101434.70;1610014;87;21007;-83
2020/12/11 11:14:19;;;;;;;29.92;12.98;;;;;;;2.33;58.07;101418.20;1611999;84;22200;-79
2020/12/11 11:19:28;;;;;;;22.05;11.55;;;;;;;2.35;58.25;101422.48;1706432;81;21013;-77
2020/12/11 11:24:50;;;;;;;22.98;10.65;;;;;;;2.41;58.19;101434.50;1703774;83;20919;-81
2020/12/11 11:29:33;;;;;;;20.40;8.80;;;;;;;2.49;57.83;101423.16;1700978;83;21617;-81
2020/12/11 11:32:02;;;;;;;23.05;10.60;;;;;;;2.52;57.90;101420.97;1701773;83;21416;-82
2020/12/11 11:34:30;;;;;;;18.05;9.70;;;;;;;2.56;57.81;101417.91;1698732;83;20966;-83
2020/12/11 11:36:59;;;;;;;20.00;9.55;;;;;;;2.57;57.72;101411.39;1698711;83;20966;-81
2020/12/11 11:39:29;;;;;;;18.82;9.08;;;;;;;2.64;57.70;101412.16;1698743;83;21484;-81
2020/12/11 11:41:57;;;;;;;20.35;9.70;;;;;;;2.66;57.47;101403.48;1701153;83;21408;-77
2020/12/11 11:44:38;;;;;;;32.17;14.03;;;;;;;2.72;57.53;101396.53;1698705;81;21002;-79
2020/12/11 11:46:58;;;;;;;23.62;11.10;;;;;;;2.75;57.53;101399.06;1699748;83;20934;-80
2020/12/11 11:49:35;;;;;;;17.62;9.05;;;;;;;2.80;57.38;101395.54;1701094;83;21507;-79
2020/12/11 11:52:21;;;;;;;20.00;9.40;;;;;;;2.87;57.22;101390.67;1698161;83;21710;-80
2020/12/11 11:54:42;;;;;;;14.83;8.70;;;;;;;2.93;56.98;101387.11;1725984;81;21634;-85
2020/12/11 11:57:10;;;;;;;25.45;10.75;;;;;;;3.02;56.85;101392.59;1698770;83;20975;-85